Time;durP1;ratioP1;P1;durP2;ratioP2;P2;SDS_P1;SDS_P2;PMS_P1;PMS_P2;Temp;Humidity;BMP_temperature;BMP_pressure;BME280_temperature;BME280_humidity;BME280_pressure;Samples;Min_cycle;Max_cycle;Signal;HPM_P1;HPM_P2
2022/09/16 00:01:15;;;;;;;;;;;;;;;22.93;59.45;98520.31;7314527;19;130513;-37
2022/09/16 00:03:41;;;;;;;;;;;;;;;22.93;59.70;98520.31;7317345;19;129091;-37
2022/09/16 00:06:15;;;;;;;;;;;;;;;22.92;59.88;98518.69;7316615;19;129071;-37
2022/09/16 00:08:42;;;;;;;;;;;;;;;22.92;59.44;98518.69;7318088;19;129253;-37
2022/09/16 00:11:07;;;;;;;;;;;;;;;22.92;59.40;98521.31;7315054;19;129259;-38
2022/09/16 00:13:33;;;;;;;;;;;;;;;22.93;59.94;98518.50;7316784;19;128883;-37
2022/09/16 00:15:58;;;;;;;;;;;;;;;22.92;59.65;98523.94;7317125;19;129958;-37
2022/09/16 00:18:24;;;;;;;;;;;;;;;22.92;59.70;98516.06;7317319;19;130922;-37
2022/09/16 00:20:50;;;;;;;;;;;;;;;22.94;59.83;98511.47;7314873;19;130428;-37
2022/09/16 00:23:17;;;;;;;;;;;;;;;22.94;59.66;98511.47;7316467;19;128887;-37
2022/09/16 00:25:42;;;;;;;;;;;;;;;22.93;59.63;98520.31;7316058;19;129332;-37
2022/09/16 00:28:07;;;;;;;;;;;;;;;22.93;59.62;98520.31;7317081;19;130174;-37
2022/09/16 00:30:32;;;;;;;;;;;;;;;22.94;59.61;98517.50;7313968;19;129293;-37
2022/09/16 00:32:58;;;;;;;;;;;;;;;22.92;59.86;98526.56;7316506;19;130021;-37
2022/09/16 00:35:23;;;;;;;;;;;;;;;22.93;59.30;98523.75;7316804;19;129002;-37
2022/09/16 00:37:48;;;;;;;;;;;;;;;22.94;59.92;98532.44;7316029;19;130060;-37
2022/09/16 00:40:13;;;;;;;;;;;;;;;22.93;59.28;98530.78;7314177;19;130960;-37
2022/09/16 00:42:39;;;;;;;;;;;;;;;22.94;59.72;98527.19;7313228;19;129361;-37
2022/09/16 00:45:30;;;;;;;;;;;;;;;22.94;59.88;98519.34;7315087;19;128956;-38
2022/09/16 00:48:05;;;;;;;;;;;;;;;22.95;60.02;98523.56;7316302;19;129074;-37
2022/09/16 00:50:30;;;;;;;;;;;;;;;22.94;59.65;98516.72;7313924;19;129300;-38
2022/09/16 00:52:56;;;;;;;;;;;;;;;22.94;59.51;98520.13;7316173;19;129010;-37
2022/09/16 00:55:26;;;;;;;;;;;;;;;22.94;59.30;98514.09;7315104;19;129083;-38
2022/09/16 00:57:53;;;;;;;;;;;;;;;22.93;59.90;98518.50;7313571;19;129697;-38
2022/09/16 01:00:18;;;;;;;;;;;;;;;22.93;59.93;98523.75;7313565;19;130282;-38
2022/09/16 01:02:45;;;;;;;;;;;;;;;22.93;59.95;98515.88;7314456;19;128940;-37
2022/09/16 01:05:13;;;;;;;;;;;;;;;22.93;59.45;98521.13;7313964;19;129348;-38
2022/09/16 01:07:40;;;;;;;;;;;;;;;22.94;59.36;98527.19;7313600;19;130598;-38
2022/09/16 01:10:06;;;;;;;;;;;;;;;22.94;60.09;98524.56;7313839;19;130711;-37
2022/09/16 01:12:32;;;;;;;;;;;;;;;22.92;59.75;98516.06;7314505;19;128926;-37
2022/09/16 01:14:58;;;;;;;;;;;;;;;22.93;59.34;98522.94;7315376;19;128908;-37
2022/09/16 01:17:23;;;;;;;;;;;;;;;22.94;59.77;98521.97;7314587;19;130926;-37
2022/09/16 01:20:01;;;;;;;;;;;;;;;22.94;60.17;98527.19;7313292;19;130204;-37
2022/09/16 01:22:45;;;;;;;;;;;;;;;22.95;59.36;98527.03;7313575;19;129617;-37
2022/09/16 01:25:28;;;;;;;;;;;;;;;22.93;60.02;98520.31;7315588;19;129334;-37
2022/09/16 01:28:03;;;;;;;;;;;;;;;22.93;59.31;98525.53;7313989;19;129266;-37
2022/09/16 01:30:45;;;;;;;;;;;;;;;22.94;59.58;98521.97;7313313;19;130428;-37
2022/09/16 01:33:25;;;;;;;;;;;;;;;22.93;59.80;98523.75;7314621;19;129821;-37
2022/09/16 01:35:53;;;;;;;;;;;;;;;22.93;60.07;98526.38;7314746;19;129095;-37
2022/09/16 01:38:25;;;;;;;;;;;;;;;22.94;59.29;98532.44;7314063;19;130732;-37
2022/09/16 01:41:05;;;;;;;;;;;;;;;22.95;59.34;98528.81;7311732;19;130673;-37
2022/09/16 01:43:33;;;;;;;;;;;;;;;22.95;59.85;98532.25;7314888;19;130491;-37
2022/09/16 01:46:04;;;;;;;;;;;;;;;22.95;59.52;98539.31;7311491;19;129372;-37
2022/09/16 01:48:32;;;;;;;;;;;;;;;22.94;59.44;98522.75;7314659;19;129316;-37
2022/09/16 01:51:00;;;;;;;;;;;;;;;22.93;59.66;98530.78;7311860;19;131076;-37
2022/09/16 01:53:33;;;;;;;;;;;;;;;22.92;59.96;98529.97;7314842;19;129099;-38
2022/09/16 01:56:08;;;;;;;;;;;;;;;22.87;59.57;98521.81;7313656;19;128847;-38
2022/09/16 01:58:45;;;;;;;;;;;;;;;22.95;60.13;98539.31;7314634;19;130208;-38
2022/09/16 02:01:24;;;;;;;;;;;;;;;22.93;59.44;98536.84;7312131;19;129159;-38
2022/09/16 02:03:53;;;;;;;;;;;;;;;22.92;59.44;98537.81;7314397;19;128924;-41
2022/09/16 02:06:21;;;;;;;;;;;;;;;22.95;60.08;98541.91;7313066;19;129018;-40
2022/09/16 02:08:52;;;;;;;;;;;;;;;22.95;59.45;98539.31;7312864;19;129438;-38
2022/09/16 02:11:18;;;;;;;;;;;;;;;22.95;59.95;98544.53;7310869;19;129749;-39
2022/09/16 02:13:46;;;;;;;;;;;;;;;22.93;59.77;98536.03;7313891;19;128962;-39
2022/09/16 02:16:31;;;;;;;;;;;;;;;22.94;59.52;98538.47;7313514;19;128975;-39
2022/09/16 02:19:01;;;;;;;;;;;;;;;22.94;59.55;98532.44;7312003;19;131054;-38
2022/09/16 02:21:28;;;;;;;;;;;;;;;22.93;59.97;98530.78;7312745;19;130509;-39
2022/09/16 02:23:56;;;;;;;;;;;;;;;22.94;59.71;98529.81;7313921;19;129098;-40
2022/09/16 02:26:25;;;;;;;;;;;;;;;22.94;59.92;98532.44;7312716;19;129516;-40
2022/09/16 02:28:52;;;;;;;;;;;;;;;22.87;60.09;98531.50;7312489;19;129832;-39
2022/09/16 02:31:20;;;;;;;;;;;;;;;22.94;59.84;98541.09;7309486;19;131796;-41
2022/09/16 02:34:00;;;;;;;;;;;;;;;22.83;60.07;98514.47;7312903;19;129315;-41
2022/09/16 02:36:26;;;;;;;;;;;;;;;22.95;59.57;98534.06;7312328;19;128747;-37
2022/09/16 02:38:57;;;;;;;;;;;;;;;22.94;59.36;98530.63;7311682;19;131910;-38
2022/09/16 02:41:22;;;;;;;;;;;;;;;22.95;59.29;98536.69;7310512;19;129095;-38
2022/09/16 02:43:48;;;;;;;;;;;;;;;22.94;59.32;98538.47;7314160;19;130566;-40
2022/09/16 02:46:52;;;;;;;;;;;;;;;22.94;59.28;98532.44;7313926;19;129184;-36
2022/09/16 02:49:23;;;;;;;;;;;;;;;22.93;59.76;98541.28;7307828;19;130209;-40
2022/09/16 02:51:51;;;;;;;;;;;;;;;22.84;59.73;98524.00;7304354;19;129657;-35
2022/09/16 02:54:21;;;;;;;;;;;;;;;22.93;59.87;98533.41;7310702;19;128719;-39
2022/09/16 02:56:46;;;;;;;;;;;;;;;22.92;59.56;98532.59;7312209;19;128896;-39
2022/09/16 02:59:12;;;;;;;;;;;;;;;22.92;59.67;98532.59;7311702;19;130273;-41
2022/09/16 03:01:40;;;;;;;;;;;;;;;22.93;59.64;98538.66;7311652;19;131303;-40
2022/09/16 03:04:05;;;;;;;;;;;;;;;22.93;60.12;98533.41;7311990;19;129822;-41
2022/09/16 03:06:34;;;;;;;;;;;;;;;22.92;59.78;98529.16;7310821;19;129474;-40
2022/09/16 03:09:01;;;;;;;;;;;;;;;22.92;59.46;98531.78;7311615;19;129481;-41
2022/09/16 03:11:29;;;;;;;;;;;;;;;22.94;59.54;98532.44;7309349;19;130354;-40
2022/09/16 03:14:12;;;;;;;;;;;;;;;22.93;59.84;98528.16;7311315;19;129347;-42
2022/09/16 03:16:47;;;;;;;;;;;;;;;22.92;59.85;98523.94;7312395;19;129410;-37
2022/09/16 03:19:49;;;;;;;;;;;;;;;22.92;59.34;98524.72;7310531;19;130126;-39
2022/09/16 03:22:14;;;;;;;;;;;;;;;22.89;59.82;98519.03;7313576;19;129340;-37
2022/09/16 03:24:39;;;;;;;;;;;;;;;22.93;59.69;98530.78;7317718;19;129064;-38
2022/09/16 03:27:14;;;;;;;;;;;;;;;22.93;59.75;98534.25;7319417;19;128951;-40
2022/09/16 03:29:45;;;;;;;;;;;;;;;22.93;60.20;98525.53;7316013;19;129480;-37
2022/09/16 03:32:22;;;;;;;;;;;;;;;22.93;59.78;98528.16;7318167;19;130526;-38
2022/09/16 03:34:50;;;;;;;;;;;;;;;22.92;59.39;98532.59;7318729;19;129313;-37
2022/09/16 03:37:18;;;;;;;;;;;;;;;22.86;59.65;98508.88;7318411;19;129437;-38
2022/09/16 03:39:48;;;;;;;;;;;;;;;22.93;59.80;98525.53;7316217;19;129070;-40
2022/09/16 03:42:13;;;;;;;;;;;;;;;22.93;59.78;98526.38;7316950;19;129120;-37
2022/09/16 03:44:39;;;;;;;;;;;;;;;22.93;59.54;98521.13;7317566;19;128874;-38
2022/09/16 03:47:07;;;;;;;;;;;;;;;22.92;59.81;98510.81;7315202;19;129363;-37
2022/09/16 03:49:33;;;;;;;;;;;;;;;22.93;60.14;98520.31;7316126;19;130093;-37
2022/09/16 03:51:59;;;;;;;;;;;;;;;22.92;59.50;98518.69;7313149;19;129333;-39
2022/09/16 03:54:24;;;;;;;;;;;;;;;22.92;59.82;98521.31;7316266;19;129523;-38
2022/09/16 03:56:49;;;;;;;;;;;;;;;22.93;59.62;98515.06;7316706;19;129592;-39
2022/09/16 03:59:15;;;;;;;;;;;;;;;22.94;60.13;98516.72;7315754;19;129249;-37
2022/09/16 04:01:41;;;;;;;;;;;;;;;22.94;59.97;98514.88;7315164;19;130326;-40
2022/09/16 04:04:06;;;;;;;;;;;;;;;22.94;59.77;98516.72;7316105;19;130468;-40
2022/09/16 04:06:31;;;;;;;;;;;;;;;22.94;60.07;98514.09;7317041;19;128836;-38
2022/09/16 04:08:59;;;;;;;;;;;;;;;22.94;59.59;98517.50;7315722;19;130203;-38
2022/09/16 04:11:25;;;;;;;;;;;;;;;22.93;59.37;98521.13;7313911;19;129613;-39
2022/09/16 04:13:50;;;;;;;;;;;;;;;22.95;59.37;98523.56;7315121;19;129112;-39
2022/09/16 04:16:22;;;;;;;;;;;;;;;22.93;59.84;98520.31;7315177;19;129602;-37
2022/09/16 04:18:48;;;;;;;;;;;;;;;22.94;59.35;98516.72;7317003;19;129270;-38
2022/09/16 04:21:13;;;;;;;;;;;;;;;23.01;58.95;98522.88;7315225;19;130253;-39
2022/09/16 04:23:39;;;;;;;;;;;;;;;22.97;59.46;98521.59;7316232;19;128980;-38
2022/09/16 04:26:04;;;;;;;;;;;;;;;22.93;60.01;98523.75;7316678;19;128970;-37
2022/09/16 04:28:31;;;;;;;;;;;;;;;22.93;59.85;98525.53;7315062;19;129832;-38
2022/09/16 04:31:00;;;;;;;;;;;;;;;22.92;59.99;98516.06;7314126;19;129259;-38
2022/09/16 04:33:30;;;;;;;;;;;;;;;22.93;59.45;98517.69;7316354;19;129017;-37
2022/09/16 04:36:21;;;;;;;;;;;;;;;22.91;59.16;98522.28;7314849;19;128953;-37
2022/09/16 04:38:47;;;;;;;;;;;;;;;22.82;59.47;98507.63;7316070;19;131165;-39
2022/09/16 04:41:14;;;;;;;;;;;;;;;22.94;59.49;98527.19;7313755;19;129313;-38
2022/09/16 04:43:39;;;;;;;;;;;;;;;22.92;59.73;98529.16;7315180;19;129331;-39
2022/09/16 04:46:05;;;;;;;;;;;;;;;22.93;59.91;98530.78;7314832;19;129073;-37
2022/09/16 04:48:31;;;;;;;;;;;;;;;22.92;59.70;98534.41;7314816;19;130472;-38
2022/09/16 04:51:04;;;;;;;;;;;;;;;22.90;59.48;98524.09;7314083;19;129326;-38
2022/09/16 04:53:29;;;;;;;;;;;;;;;22.91;59.77;98532.75;7314966;19;129642;-40
2022/09/16 04:56:01;;;;;;;;;;;;;;;22.92;59.36;98542.28;7314705;19;129293;-39
2022/09/16 04:58:28;;;;;;;;;;;;;;;22.93;59.97;98531.63;7315270;19;130593;-38
2022/09/16 05:00:53;;;;;;;;;;;;;;;22.91;59.35;98540.63;7312715;19;130420;-39
2022/09/16 05:03:18;;;;;;;;;;;;;;;22.92;59.10;98540.44;7314900;19;129641;-39
2022/09/16 05:05:43;;;;;;;;;;;;;;;22.81;59.82;98532.16;7311812;19;129476;-37
2022/09/16 05:08:08;;;;;;;;;;;;;;;22.92;60.08;98539.66;7314128;19;129674;-38
2022/09/16 05:10:34;;;;;;;;;;;;;;;22.91;59.95;98536.22;7312101;19;130789;-39
2022/09/16 05:12:59;;;;;;;;;;;;;;;22.91;59.70;98538.00;7313519;19;129873;-38
2022/09/16 05:15:24;;;;;;;;;;;;;;;22.94;59.60;98537.69;7313927;19;129745;-37
2022/09/16 05:17:49;;;;;;;;;;;;;;;22.91;59.24;98536.22;7315966;19;129112;-38
2022/09/16 05:20:16;;;;;;;;;;;;;;;22.91;59.20;98543.25;7310692;19;130848;-39
2022/09/16 05:22:41;;;;;;;;;;;;;;;22.91;59.50;98538.00;7314394;19;128931;-38
2022/09/16 05:25:07;;;;;;;;;;;;;;;22.81;59.23;98527.75;7313772;19;130244;-39
2022/09/16 05:27:32;;;;;;;;;;;;;;;22.90;59.34;98547.69;7315692;19;129048;-40
2022/09/16 05:29:58;;;;;;;;;;;;;;;22.91;59.81;98545.88;7314713;19;130282;-37
2022/09/16 05:32:23;;;;;;;;;;;;;;;22.90;59.74;98546.88;7312177;19;129511;-38
2022/09/16 05:34:49;;;;;;;;;;;;;;;22.91;59.81;98543.25;7314271;19;129657;-42
2022/09/16 05:37:14;;;;;;;;;;;;;;;22.89;59.29;98551.28;7315733;19;129395;-39
2022/09/16 05:39:40;;;;;;;;;;;;;;;22.90;59.20;98550.31;7313029;19;129614;-37
2022/09/16 05:42:05;;;;;;;;;;;;;;;22.90;59.24;98541.63;7313887;19;129305;-38
2022/09/16 05:44:30;;;;;;;;;;;;;;;22.91;59.66;98544.06;7313180;19;129601;-37
2022/09/16 05:46:56;;;;;;;;;;;;;;;22.92;59.62;98550.13;7314208;19;129343;-39
2022/09/16 05:49:22;;;;;;;;;;;;;;;22.89;59.38;98540.81;7313122;19;129600;-39
2022/09/16 05:51:48;;;;;;;;;;;;;;;22.89;59.53;98547.88;7312776;19;128769;-38
2022/09/16 05:54:13;;;;;;;;;;;;;;;22.88;59.69;98540.97;7313650;19;130290;-38
2022/09/16 05:56:38;;;;;;;;;;;;;;;22.89;59.20;98540.81;7314333;19;129485;-38
2022/09/16 05:59:04;;;;;;;;;;;;;;;22.90;59.28;98536.38;7313816;19;129836;-38
2022/09/16 06:01:31;;;;;;;;;;;;;;;22.83;59.58;98524.94;7312316;19;129076;-38
2022/09/16 06:03:56;;;;;;;;;;;;;;;22.89;59.37;98540.00;7302405;19;130862;-39
2022/09/16 06:06:24;;;;;;;;;;;;;;;22.89;59.98;98532.16;7295972;19;129809;-38
2022/09/16 06:08:51;;;;;;;;;;;;;;;22.89;59.14;98534.75;7310014;19;129655;-38
2022/09/16 06:11:16;;;;;;;;;;;;;;;22.91;59.24;98523.09;7312162;19;129257;-39
2022/09/16 06:13:42;;;;;;;;;;;;;;;22.92;59.44;98539.66;7314621;19;129432;-38
2022/09/16 06:16:08;;;;;;;;;;;;;;;22.89;59.51;98532.16;7312959;19;129721;-38
2022/09/16 06:18:34;;;;;;;;;;;;;;;22.91;59.55;98545.88;7309923;19;130263;-41
2022/09/16 06:21:02;;;;;;;;;;;;;;;22.90;59.38;98539.00;7311838;19;129135;-37
2022/09/16 06:23:28;;;;;;;;;;;;;;;22.90;59.49;98537.22;7313530;19;128931;-38
2022/09/16 06:26:19;;;;;;;;;;;;;;;22.93;58.91;98536.84;7313917;19;130261;-39
2022/09/16 06:28:45;;;;;;;;;;;;;;;22.90;59.53;98531.16;7312163;19;129742;-38
2022/09/16 06:31:12;;;;;;;;;;;;;;;22.90;59.64;98531.16;7311249;19;129795;-37
2022/09/16 06:33:38;;;;;;;;;;;;;;;22.92;58.91;98534.41;7313606;19;129359;-38
2022/09/16 06:36:13;;;;;;;;;;;;;;;22.91;59.37;98532.75;7313682;19;130067;-37
2022/09/16 06:38:39;;;;;;;;;;;;;;;22.92;59.76;98529.97;7313612;19;130342;-39
2022/09/16 06:41:06;;;;;;;;;;;;;;;22.88;59.16;98538.34;7310933;19;129130;-39
2022/09/16 06:43:31;;;;;;;;;;;;;;;22.89;59.74;98529.53;7311403;19;129641;-37
2022/09/16 06:46:01;;;;;;;;;;;;;;;22.83;59.52;98524.94;7312930;19;129212;-40
2022/09/16 06:48:26;;;;;;;;;;;;;;;22.89;59.45;98534.75;7311789;19;131013;-39
2022/09/16 06:51:02;;;;;;;;;;;;;;;22.89;59.37;98534.75;7310515;19;129363;-37
2022/09/16 06:53:28;;;;;;;;;;;;;;;22.92;58.70;98542.28;7312004;19;128906;-39
2022/09/16 06:55:54;;;;;;;;;;;;;;;22.94;59.18;98541.09;7315832;19;129563;-38
2022/09/16 06:58:19;;;;;;;;;;;;;;;22.94;59.34;98548.97;7319449;19;130625;-38
2022/09/16 07:00:44;;;;;;;;;;;;;;;22.91;59.43;98538.00;7309711;19;129658;-40
2022/09/16 07:03:10;;;;;;;;;;;;;;;22.91;59.37;98543.25;7317926;19;130645;-37
2022/09/16 07:05:35;;;;;;;;;;;;;;;22.91;59.68;98540.63;7316656;19;129435;-40
2022/09/16 07:08:00;;;;;;;;;;;;;;;22.90;58.97;98536.38;7316698;19;129433;-39
2022/09/16 07:10:25;;;;;;;;;;;;;;;22.88;59.15;98543.59;7316994;19;128916;-41
2022/09/16 07:12:51;;;;;;;;;;;;;;;22.91;59.29;98543.25;7318380;19;129018;-39
2022/09/16 07:15:16;;;;;;;;;;;;;;;22.89;59.61;98537.38;7318743;19;129814;-38
2022/09/16 07:17:41;;;;;;;;;;;;;;;22.91;59.22;98536.22;7318659;19;129626;-39
2022/09/16 07:20:07;;;;;;;;;;;;;;;22.92;59.27;98545.69;7317654;19;128873;-37
2022/09/16 07:22:32;;;;;;;;;;;;;;;22.91;59.71;98543.25;7314064;19;129425;-37
2022/09/16 07:24:57;;;;;;;;;;;;;;;22.91;59.29;98548.50;7315568;19;130881;-37
2022/09/16 07:27:22;;;;;;;;;;;;;;;22.93;58.88;98551.75;7318357;19;129385;-38
2022/09/16 07:29:48;;;;;;;;;;;;;;;22.94;58.82;98548.16;7317296;19;128920;-39
2022/09/16 07:32:13;;;;;;;;;;;;;;;22.84;59.22;98527.41;7312937;19;129038;-39
2022/09/16 07:34:38;;;;;;;;;;;;;;;22.91;59.40;98551.94;7316371;19;129448;-37
2022/09/16 07:37:04;;;;;;;;;;;;;;;22.92;58.98;98550.13;7317950;19;130957;-37
2022/09/16 07:39:29;;;;;;;;;;;;;;;22.90;59.39;98557.34;7316811;19;129499;-38
2022/09/16 07:41:54;;;;;;;;;;;;;;;22.89;59.32;98551.28;7316517;19;128793;-38
2022/09/16 07:44:20;;;;;;;;;;;;;;;22.89;58.73;98553.09;7317845;19;130723;-39
2022/09/16 07:46:45;;;;;;;;;;;;;;;22.90;59.24;98557.34;7315451;19;129246;-37
2022/09/16 07:49:12;;;;;;;;;;;;;;;22.93;58.87;98557.00;7316045;19;128984;-38
2022/09/16 07:51:37;;;;;;;;;;;;;;;22.92;58.79;98553.56;7315678;19;129737;-37
2022/09/16 07:54:04;;;;;;;;;;;;;;;22.93;58.76;98551.75;7316928;19;129188;-39
2022/09/16 07:56:31;;;;;;;;;;;;;;;22.90;58.68;98552.13;7316856;19;129483;-37
2022/09/16 07:58:56;;;;;;;;;;;;;;;22.91;58.97;98543.25;7314225;19;131316;-39
2022/09/16 08:01:22;;;;;;;;;;;;;;;22.91;58.75;98543.25;7313270;19;128915;-38
2022/09/16 08:03:48;;;;;;;;;;;;;;;22.78;58.75;98540.38;7317048;19;129464;-37
2022/09/16 08:06:15;;;;;;;;;;;;;;;22.91;59.48;98548.50;7315623;19;129166;-37
2022/09/16 08:08:41;;;;;;;;;;;;;;;22.90;59.07;98552.13;7317571;19;129361;-40
2022/09/16 08:11:07;;;;;;;;;;;;;;;22.90;58.86;98539.00;7315541;19;128886;-38
2022/09/16 08:13:34;;;;;;;;;;;;;;;22.90;59.25;98536.38;7311850;19;129642;-40
2022/09/16 08:16:03;;;;;;;;;;;;;;;22.91;58.79;98538.84;7313193;19;129322;-39
2022/09/16 08:18:29;;;;;;;;;;;;;;;22.91;59.02;98538.00;7315642;19;129212;-37
2022/09/16 08:20:54;;;;;;;;;;;;;;;22.87;59.00;98536.75;7315342;19;128919;-36
2022/09/16 08:23:20;;;;;;;;;;;;;;;22.86;59.04;98535.09;7308014;19;130100;-38
2022/09/16 08:25:46;;;;;;;;;;;;;;;22.87;58.77;98534.91;7315770;19;130383;-37
2022/09/16 08:28:15;;;;;;;;;;;;;;;22.87;59.43;98541.97;7317361;19;128811;-37
2022/09/16 08:30:40;;;;;;;;;;;;;;;22.88;58.81;98538.34;7313841;19;129732;-39
2022/09/16 08:33:06;;;;;;;;;;;;;;;22.89;59.53;98534.75;7315893;19;130159;-39
2022/09/16 08:35:31;;;;;;;;;;;;;;;22.89;58.53;98540.00;7316915;19;129712;-38
2022/09/16 08:37:57;;;;;;;;;;;;;;;22.90;59.25;98539.84;7310762;19;130007;-38
2022/09/16 08:40:23;;;;;;;;;;;;;;;22.80;59.35;98520.06;7311239;19;129430;-38
2022/09/16 08:43:00;;;;;;;;;;;;;;;22.89;58.93;98532.94;7313976;19;130572;-38
2022/09/16 08:45:41;;;;;;;;;;;;;;;22.88;59.16;98544.41;7314142;19;130157;-38
2022/09/16 08:48:22;;;;;;;;;;;;;;;22.92;58.65;98550.13;7312531;19;131228;-39
2022/09/16 08:50:48;;;;;;;;;;;;;;;22.85;59.10;98536.91;7312049;19;128851;-38
2022/09/16 08:53:19;;;;;;;;;;;;;;;22.89;59.09;98546.03;7313972;19;129266;-37
2022/09/16 08:55:46;;;;;;;;;;;;;;;22.92;58.71;98544.91;7316181;19;129371;-38
2022/09/16 08:58:31;;;;;;;;;;;;;;;22.91;59.08;98538.00;7316441;19;129430;-37
2022/09/16 09:01:01;;;;;;;;;;;;;;;22.87;59.33;98548.00;7313279;19;129658;-38
2022/09/16 09:03:35;;;;;;;;;;;;;;;22.90;58.58;98549.50;7314186;19;129702;-42
2022/09/16 09:06:02;;;;;;;;;;;;;;;22.79;59.21;98534.16;7315686;19;132609;-40
2022/09/16 09:08:46;;;;;;;;;;;;;;;22.88;59.01;98556.69;7315298;19;128880;-37
2022/09/16 09:11:15;;;;;;;;;;;;;;;22.80;58.74;98536.63;7311747;19;128956;-38
2022/09/16 09:14:04;;;;;;;;;;;;;;;22.80;58.56;98533.16;7310555;19;129099;-39
2022/09/16 09:16:44;;;;;;;;;;;;;;;22.89;58.97;98550.50;7310151;19;146105;-39
2022/09/16 09:19:21;;;;;;;;;;;;;;;22.79;58.60;98528.94;7310877;19;129339;-38
2022/09/16 09:21:47;;;;;;;;;;;;;;;22.87;58.95;98547.22;7313905;19;128856;-40
2022/09/16 09:24:21;;;;;;;;;;;;;;;22.87;59.29;98547.22;7309408;19;129261;-38
2022/09/16 09:26:46;;;;;;;;;;;;;;;22.86;58.48;98548.19;7312732;19;129342;-39
2022/09/16 09:29:18;;;;;;;;;;;;;;;22.87;58.87;98547.22;7314956;19;129208;-38
2022/09/16 09:31:44;;;;;;;;;;;;;;;22.82;58.62;98536.44;7311097;19;129156;-38
2022/09/16 09:34:12;;;;;;;;;;;;;;;22.90;58.80;98531.16;7315404;19;130370;-38
2022/09/16 09:37:00;;;;;;;;;;;;;;;22.87;58.16;98534.13;7314457;19;130541;-37
2022/09/16 09:39:25;;;;;;;;;;;;;;;22.78;59.17;98522.03;7310181;19;129557;-37
2022/09/16 09:41:59;;;;;;;;;;;;;;;22.87;58.83;98527.03;7310635;19;130081;-38
2022/09/16 09:44:33;;;;;;;;;;;;;;;22.88;58.43;98522.63;7314029;19;130805;-37
2022/09/16 09:47:22;;;;;;;;;;;;;;;22.89;58.31;98519.03;7312763;19;131235;-37
2022/09/16 09:49:54;;;;;;;;;;;;;;;22.90;59.07;98520.66;7306177;19;130034;-37
2022/09/16 09:52:27;;;;;;;;;;;;;;;22.89;58.12;98519.03;7311835;19;129019;-36
2022/09/16 09:54:54;;;;;;;;;;;;;;;22.89;58.96;98516.41;7310468;19;129392;-38
2022/09/16 09:57:19;;;;;;;;;;;;;;;22.88;58.17;98512.16;7311055;19;130317;-41
2022/09/16 10:00:00;;;;;;;;;;;;;;;22.86;59.08;98512.31;7311678;19;129543;-40
2022/09/16 10:02:25;;;;;;;;;;;;;;;22.87;58.56;98510.53;7309285;19;130257;-40
2022/09/16 10:04:51;;;;;;;;;;;;;;;22.85;58.24;98508.09;7315110;19;129469;-38
2022/09/16 10:07:17;;;;;;;;;;;;;;;22.85;59.02;98512.50;7307992;19;130456;-38
2022/09/16 10:09:48;;;;;;;;;;;;;;;22.87;58.80;98516.56;7312705;19;129444;-38
2022/09/16 10:12:24;;;;;;;;;;;;;;;22.87;58.53;98515.78;7311175;19;128640;-38
2022/09/16 10:14:50;;;;;;;;;;;;;;;22.87;58.00;98526.25;7314143;19;129265;-38
2022/09/16 10:17:16;;;;;;;;;;;;;;;22.86;58.58;98541.16;7312461;19;130699;-37
2022/09/16 10:20:00;;;;;;;;;;;;;;;22.78;58.36;98537.75;7311999;19;130376;-40
2022/09/16 10:22:26;;;;;;;;;;;;;;;22.78;59.09;98543.00;7308975;19;129101;-37
2022/09/16 10:24:53;;;;;;;;;;;;;;;22.85;59.24;98538.72;7307895;19;130966;-38
2022/09/16 10:27:27;;;;;;;;;;;;;;;22.84;59.26;98534.47;7314219;19;131265;-37
2022/09/16 10:30:02;;;;;;;;;;;;;;;22.83;59.11;98528.41;7315621;19;129118;-38
2022/09/16 10:32:28;;;;;;;;;;;;;;;22.78;58.76;98514.19;7317629;19;129212;-38
2022/09/16 10:34:53;;;;;;;;;;;;;;;22.84;58.97;98527.41;7313075;19;129339;-39
2022/09/16 10:37:19;;;;;;;;;;;;;;;22.85;58.71;98518.56;7317636;19;129355;-38
2022/09/16 10:39:50;;;;;;;;;;;;;;;22.85;58.60;98513.31;7317000;19;130257;-37
2022/09/16 10:42:25;;;;;;;;;;;;;;;22.85;58.92;98517.75;7320195;19;129485;-39
2022/09/16 10:44:57;;;;;;;;;;;;;;;22.85;58.66;98515.13;7318474;19;129115;-38
2022/09/16 10:47:27;;;;;;;;;;;;;;;22.84;59.40;98511.69;7317094;19;131339;-37
2022/09/16 10:49:56;;;;;;;;;;;;;;;22.84;59.01;98505.63;7318308;19;128901;-38
2022/09/16 10:52:23;;;;;;;;;;;;;;;22.85;59.01;98509.88;7315992;19;128975;-37
2022/09/16 10:54:49;;;;;;;;;;;;;;;22.85;58.88;98513.31;7317832;19;129750;-38
2022/09/16 10:57:23;;;;;;;;;;;;;;;22.83;59.15;98517.09;7318793;19;129770;-39
2022/09/16 10:59:57;;;;;;;;;;;;;;;22.82;59.48;98518.09;7318995;19;128728;-38
2022/09/16 11:02:46;;;;;;;;;;;;;;;22.83;59.09;98520.53;7317151;19;129271;-38
2022/09/16 11:05:17;;;;;;;;;;;;;;;22.77;59.50;98494.22;7316757;19;129160;-38
2022/09/16 11:07:43;;;;;;;;;;;;;;;22.86;59.00;98520.19;7316747;19;129760;-39
2022/09/16 11:10:11;;;;;;;;;;;;;;;22.85;58.83;98510.72;7317107;19;128964;-39
2022/09/16 11:13:03;;;;;;;;;;;;;;;22.86;58.83;98498.41;7315222;19;128948;-39
2022/09/16 11:15:28;;;;;;;;;;;;;;;22.83;58.68;98506.59;7316485;19;129653;-39
2022/09/16 11:17:53;;;;;;;;;;;;;;;22.80;59.10;98499.09;7319057;19;130348;-37
2022/09/16 11:20:30;;;;;;;;;;;;;;;22.85;58.99;98508.09;7315976;19;129385;-38
2022/09/16 11:23:05;;;;;;;;;;;;;;;22.87;59.33;98510.53;7316549;19;129158;-38
2022/09/16 11:25:49;;;;;;;;;;;;;;;22.86;59.69;98508.88;7317703;19;131113;-39
2022/09/16 11:28:22;;;;;;;;;;;;;;;22.85;59.12;98513.31;7317335;19;129363;-38
2022/09/16 11:31:06;;;;;;;;;;;;;;;22.85;59.36;98499.41;7315832;19;129788;-37
2022/09/16 11:33:36;;;;;;;;;;;;;;;22.88;59.07;98506.91;7314628;19;129023;-38
2022/09/16 11:36:20;;;;;;;;;;;;;;;22.84;59.48;98503.81;7317027;19;129538;-38
2022/09/16 11:38:48;;;;;;;;;;;;;;;22.86;58.95;98509.69;7314767;19;131187;-38
2022/09/16 11:41:32;;;;;;;;;;;;;;;22.87;59.19;98508.69;7312337;19;129165;-38
2022/09/16 11:44:12;;;;;;;;;;;;;;;22.87;59.49;98507.91;7317767;19;130187;-38
2022/09/16 11:46:46;;;;;;;;;;;;;;;22.80;58.83;98493.88;7317231;19;129069;-38
2022/09/16 11:49:14;;;;;;;;;;;;;;;22.87;59.28;98500.03;7314492;19;130323;-39
2022/09/16 11:51:42;;;;;;;;;;;;;;;22.86;59.77;98498.41;7314795;19;129480;-38
2022/09/16 11:54:14;;;;;;;;;;;;;;;22.86;59.82;98490.53;7314250;19;129865;-40
2022/09/16 11:56:43;;;;;;;;;;;;;;;22.85;59.72;98483.69;7318468;19;129036;-39
2022/09/16 11:59:38;;;;;;;;;;;;;;;22.76;59.34;98475.03;7317322;19;130785;-37
2022/09/16 12:02:14;;;;;;;;;;;;;;;22.84;59.29;98480.22;7314899;19;129347;-38
2022/09/16 12:04:43;;;;;;;;;;;;;;;22.85;59.62;98481.88;7318154;19;130194;-37
2022/09/16 12:07:11;;;;;;;;;;;;;;;22.87;59.67;98479.06;7318378;19;131127;-37
2022/09/16 12:09:58;;;;;;;;;;;;;;;22.86;59.13;98456.47;7316690;19;131249;-38
2022/09/16 12:12:46;;;;;;;;;;;;;;;22.86;59.12;98474.81;7314181;19;128951;-39
2022/09/16 12:15:17;;;;;;;;;;;;;;;22.85;59.66;98465.31;7316675;19;129159;-37
2022/09/16 12:17:48;;;;;;;;;;;;;;;22.80;59.13;98444.91;7317283;19;129978;-38
2022/09/16 12:20:15;;;;;;;;;;;;;;;22.83;59.43;98448.97;7316429;19;130437;-37
2022/09/16 12:22:43;;;;;;;;;;;;;;;22.83;59.96;98446.34;7316327;19;129109;-38
2022/09/16 12:25:12;;;;;;;;;;;;;;;22.85;59.80;98460.09;7315596;19;129226;-37
2022/09/16 12:27:48;;;;;;;;;;;;;;;22.84;59.87;98461.88;7315715;19;129031;-37
2022/09/16 12:30:36;;;;;;;;;;;;;;;22.83;59.29;98462.88;7315242;19;130643;-40
2022/09/16 12:33:07;;;;;;;;;;;;;;;22.84;59.50;98453.22;7311867;19;128953;-38
2022/09/16 12:35:36;;;;;;;;;;;;;;;22.83;59.71;98447.16;7316945;19;129050;-37
2022/09/16 12:38:02;;;;;;;;;;;;;;;22.75;59.47;98428.06;7316834;19;130966;-39
2022/09/16 12:40:46;;;;;;;;;;;;;;;22.82;59.95;98444.72;7314008;19;130240;-37
2022/09/16 12:43:20;;;;;;;;;;;;;;;22.85;59.36;98444.38;7315491;19;128852;-39
2022/09/16 12:46:00;;;;;;;;;;;;;;;22.84;59.33;98440.13;7316240;19;129144;-38
2022/09/16 12:48:28;;;;;;;;;;;;;;;22.85;59.80;98449.59;7315781;19;129452;-40